Time;durP1;ratioP1;P1;durP2;ratioP2;P2;SDS_P1;SDS_P2;PMS_P1;PMS_P2;Temp;Humidity;BMP_temperature;BMP_pressure;BME280_temperature;BME280_humidity;BME280_pressure;Samples;Min_cycle;Max_cycle;Signal;HPM_P1;HPM_P2
2022/06/21 00:01:15;;;;;;;;;;;;;;;;;;5006239;28;19921;-63
2022/06/21 00:03:42;;;;;;;;;;;;;;;;;;5010362;28;19967;-63
2022/06/21 00:06:10;;;;;;;;;;;;;;;;;;4993964;28;20070;-64
2022/06/21 00:08:35;;;;;;;;;;;;;;;;;;5005364;28;19920;-63
2022/06/21 00:11:01;;;;;;;;;;;;;;;;;;5011874;28;19924;-63
2022/06/21 00:13:27;;;;;;;;;;;;;;;;;;5009023;28;19932;-63
2022/06/21 00:15:54;;;;;;;;;;;;;;;;;;4987888;28;19917;-63
2022/06/21 00:18:20;;;;;;;;;;;;;;;;;;5010531;28;19925;-62
2022/06/21 00:20:45;;;;;;;;;;;;;;;;;;5011306;28;19943;-63
2022/06/21 00:23:13;;;;;;;;;;;;;;;;;;5004861;28;19917;-64
2022/06/21 00:25:38;;;;;;;;;;;;;;;;;;5012477;28;19988;-63
2022/06/21 00:28:03;;;;;;;;;;;;;;;;;;5008664;28;19949;-63
2022/06/21 00:30:29;;;;;;;;;;;;;;;;;;5007806;28;19921;-63
2022/06/21 00:32:54;;;;;;;;;;;;;;;;;;5013908;28;20007;-63
2022/06/21 00:35:20;;;;;;;;;;;;;;;;;;5008192;28;19921;-62
2022/06/21 00:37:48;;;;;;;;;;;;;;;;;;5009090;28;19921;-61
2022/06/21 00:40:15;;;;;;;;;;;;;;;;;;5010964;28;19925;-62
2022/06/21 00:42:43;;;;;;;;;;;;;;;;;;5009102;28;19917;-62
2022/06/21 00:45:09;;;;;;;;;;;;;;;;;;5009054;28;19921;-63
2022/06/21 00:47:34;;;;;;;;;;;;;;;;;;5009654;28;19917;-62
2022/06/21 00:50:02;;;;;;;;;;;;;;;;;;5008015;28;20914;-62
2022/06/21 00:52:27;;;;;;;;;;;;;;;;;;5009535;28;19920;-63
2022/06/21 00:54:52;;;;;;;;;;;;;;;;;;5015377;28;19924;-62
2022/06/21 00:57:18;;;;;;;;;;;;;;;;;;5010670;28;21726;-63
2022/06/21 00:59:43;;;;;;;;;;;;;;;;;;4999805;28;19928;-63
2022/06/21 01:02:11;;;;;;;;;;;;;;;;;;5018458;28;19932;-63
2022/06/21 01:04:37;;;;;;;;;;;;;;;;;;5014202;28;19956;-62
2022/06/21 01:07:02;;;;;;;;;;;;;;;;;;4996545;28;19917;-63
2022/06/21 01:09:27;;;;;;;;;;;;;;;;;;5018053;28;21878;-63
2022/06/21 01:11:52;;;;;;;;;;;;;;;;;;5034436;28;19932;-63
2022/06/21 01:14:18;;;;;;;;;;;;;;;;;;4994718;28;19955;-63
2022/06/21 01:16:43;;;;;;;;;;;;;;;;;;5017642;28;20882;-63
2022/06/21 01:19:10;;;;;;;;;;;;;;;;;;5002177;28;19924;-63
2022/06/21 01:21:36;;;;;;;;;;;;;;;;;;5018796;28;19936;-63
2022/06/21 01:24:03;;;;;;;;;;;;;;;;;;5018711;28;19927;-63
2022/06/21 01:26:29;;;;;;;;;;;;;;;;;;5023474;28;21909;-63
2022/06/21 01:28:54;;;;;;;;;;;;;;;;;;5017911;28;19917;-63
2022/06/21 01:31:22;;;;;;;;;;;;;;;;;;5024532;28;19914;-62
2022/06/21 01:33:49;;;;;;;;;;;;;;;;;;5020483;28;20437;-62
2022/06/21 01:36:17;;;;;;;;;;;;;;;;;;5019199;28;19924;-62
2022/06/21 01:38:45;;;;;;;;;;;;;;;;;;5017537;28;19921;-62
2022/06/21 01:41:13;;;;;;;;;;;;;;;;;;5013010;28;20040;-62
2022/06/21 01:43:41;;;;;;;;;;;;;;;;;;5019727;28;19928;-62
2022/06/21 01:46:06;;;;;;;;;;;;;;;;;;5005764;28;19964;-63
2022/06/21 01:48:32;;;;;;;;;;;;;;;;;;5015716;28;20129;-63
2022/06/21 01:51:02;;;;;;;;;;;;;;;;;;5019427;28;19932;-62
2022/06/21 01:53:32;;;;;;;;;;;;;;;;;;5001135;28;19921;-64
2022/06/21 01:55:57;;;;;;;;;;;;;;;;;;5022216;28;20016;-64
2022/06/21 01:58:22;;;;;;;;;;;;;;;;;;4997582;28;19933;-63
2022/06/21 02:00:53;;;;;;;;;;;;;;;;;;5001094;28;20781;-62
2022/06/21 02:03:18;;;;;;;;;;;;;;;;;;5000805;28;19925;-62
2022/06/21 02:05:43;;;;;;;;;;;;;;;;;;5020749;28;19952;-62
2022/06/21 02:08:11;;;;;;;;;;;;;;;;;;5018759;28;19921;-62
2022/06/21 02:10:37;;;;;;;;;;;;;;;;;;5015716;28;19986;-63
2022/06/21 02:13:04;;;;;;;;;;;;;;;;;;5014466;28;20425;-62
2022/06/21 02:15:34;;;;;;;;;;;;;;;;;;5017165;28;19972;-62
2022/06/21 02:18:02;;;;;;;;;;;;;;;;;;5014367;28;20040;-63
2022/06/21 02:20:28;;;;;;;;;;;;;;;;;;5018096;28;19953;-63
2022/06/21 02:22:53;;;;;;;;;;;;;;;;;;5011312;28;19925;-63
2022/06/21 02:25:21;;;;;;;;;;;;;;;;;;5008247;28;19917;-63
2022/06/21 02:27:46;;;;;;;;;;;;;;;;;;5011736;28;19969;-63
2022/06/21 02:30:11;;;;;;;;;;;;;;;;;;5011358;28;20558;-63
2022/06/21 02:32:39;;;;;;;;;;;;;;;;;;5013959;28;19917;-63
2022/06/21 02:35:05;;;;;;;;;;;;;;;;;;4996795;28;19931;-63
2022/06/21 02:37:32;;;;;;;;;;;;;;;;;;5010408;28;21810;-63
2022/06/21 02:40:00;;;;;;;;;;;;;;;;;;5006369;28;19932;-63
2022/06/21 02:42:26;;;;;;;;;;;;;;;;;;5013838;28;19921;-62
2022/06/21 02:44:52;;;;;;;;;;;;;;;;;;5010488;28;20004;-62
2022/06/21 02:47:17;;;;;;;;;;;;;;;;;;5008344;28;19932;-62
2022/06/21 02:49:45;;;;;;;;;;;;;;;;;;4992103;28;19921;-62
2022/06/21 02:52:13;;;;;;;;;;;;;;;;;;5014072;28;20044;-62
2022/06/21 02:54:38;;;;;;;;;;;;;;;;;;5011019;28;19925;-62
2022/06/21 02:57:05;;;;;;;;;;;;;;;;;;5012438;28;20431;-61
2022/06/21 02:59:32;;;;;;;;;;;;;;;;;;5010995;28;19924;-62
2022/06/21 03:02:04;;;;;;;;;;;;;;;;;;5019905;28;19964;-62
2022/06/21 03:04:29;;;;;;;;;;;;;;;;;;5012203;28;19994;-63
2022/06/21 03:06:54;;;;;;;;;;;;;;;;;;5015608;28;19962;-63
2022/06/21 03:09:24;;;;;;;;;;;;;;;;;;5008839;28;20372;-63
2022/06/21 03:11:49;;;;;;;;;;;;;;;;;;5008281;28;19921;-63
2022/06/21 03:14:15;;;;;;;;;;;;;;;;;;5012783;28;19928;-63
2022/06/21 03:16:40;;;;;;;;;;;;;;;;;;5012987;28;19971;-63
2022/06/21 03:19:05;;;;;;;;;;;;;;;;;;4990973;28;20303;-63
2022/06/21 03:21:30;;;;;;;;;;;;;;;;;;5012312;28;20008;-62
2022/06/21 03:23:56;;;;;;;;;;;;;;;;;;5012330;28;19933;-62
2022/06/21 03:26:22;;;;;;;;;;;;;;;;;;5010053;28;19916;-63
2022/06/21 03:28:52;;;;;;;;;;;;;;;;;;5011417;28;19921;-66
2022/06/21 03:31:20;;;;;;;;;;;;;;;;;;5012199;28;19920;-63
2022/06/21 03:33:48;;;;;;;;;;;;;;;;;;5008198;28;20740;-63
2022/06/21 03:36:13;;;;;;;;;;;;;;;;;;4996840;28;19948;-63
2022/06/21 03:38:41;;;;;;;;;;;;;;;;;;5007195;28;20748;-63
2022/06/21 03:43:50;;;;;;;;;;;;;;;;;;5010984;28;19963;-63
2022/06/21 03:46:20;;;;;;;;;;;;;;;;;;5004927;28;19916;-63
2022/06/21 03:48:45;;;;;;;;;;;;;;;;;;4995841;28;19921;-63
2022/06/21 03:51:13;;;;;;;;;;;;;;;;;;5005977;28;20062;-64
2022/06/21 03:53:38;;;;;;;;;;;;;;;;;;5013832;28;20019;-63
2022/06/21 03:56:06;;;;;;;;;;;;;;;;;;5011726;28;19921;-64
2022/06/21 03:58:31;;;;;;;;;;;;;;;;;;5009795;28;21156;-64
2022/06/21 04:00:56;;;;;;;;;;;;;;;;;;5011086;28;19932;-63
2022/06/21 04:03:24;;;;;;;;;;;;;;;;;;5006311;28;19921;-63
2022/06/21 04:05:52;;;;;;;;;;;;;;;;;;5011765;28;20898;-63
2022/06/21 04:08:20;;;;;;;;;;;;;;;;;;5010245;28;19950;-63
2022/06/21 04:10:45;;;;;;;;;;;;;;;;;;5012490;28;19924;-63
2022/06/21 04:13:10;;;;;;;;;;;;;;;;;;5017621;28;19963;-63
2022/06/21 04:15:35;;;;;;;;;;;;;;;;;;4992953;28;19921;-63
2022/06/21 04:18:03;;;;;;;;;;;;;;;;;;5014147;28;21069;-63
2022/06/21 04:20:34;;;;;;;;;;;;;;;;;;5019586;28;20031;-62
2022/06/21 04:22:59;;;;;;;;;;;;;;;;;;5020182;28;20632;-63
2022/06/21 04:25:28;;;;;;;;;;;;;;;;;;5018159;28;19921;-63
2022/06/21 04:27:55;;;;;;;;;;;;;;;;;;5022661;28;19922;-64
2022/06/21 04:30:23;;;;;;;;;;;;;;;;;;5020343;28;20399;-64
2022/06/21 04:32:50;;;;;;;;;;;;;;;;;;5022213;28;19935;-63
2022/06/21 04:35:16;;;;;;;;;;;;;;;;;;5023353;28;19925;-62
2022/06/21 04:37:41;;;;;;;;;;;;;;;;;;5021407;28;20821;-63
2022/06/21 04:40:07;;;;;;;;;;;;;;;;;;5015641;28;19979;-63
2022/06/21 04:42:33;;;;;;;;;;;;;;;;;;5017933;28;19925;-63
2022/06/21 04:45:01;;;;;;;;;;;;;;;;;;5014837;28;19935;-64
2022/06/21 04:47:26;;;;;;;;;;;;;;;;;;5005386;28;19921;-63
2022/06/21 04:49:51;;;;;;;;;;;;;;;;;;5022660;28;19917;-64
2022/06/21 04:52:17;;;;;;;;;;;;;;;;;;5020345;28;21259;-63
2022/06/21 04:54:42;;;;;;;;;;;;;;;;;;5024953;28;20451;-64
2022/06/21 04:57:09;;;;;;;;;;;;;;;;;;5019324;28;19955;-63
2022/06/21 04:59:37;;;;;;;;;;;;;;;;;;5015118;28;19920;-64
2022/06/21 05:02:02;;;;;;;;;;;;;;;;;;5018522;28;21221;-64
2022/06/21 05:04:28;;;;;;;;;;;;;;;;;;5020308;28;19920;-64
2022/06/21 05:06:56;;;;;;;;;;;;;;;;;;5013520;28;19926;-64
2022/06/21 05:09:21;;;;;;;;;;;;;;;;;;5020897;28;19964;-64
2022/06/21 05:11:47;;;;;;;;;;;;;;;;;;5016524;28;19922;-64
2022/06/21 05:14:14;;;;;;;;;;;;;;;;;;5016052;28;20322;-63
2022/06/21 05:16:42;;;;;;;;;;;;;;;;;;5020644;28;19956;-65
2022/06/21 05:19:12;;;;;;;;;;;;;;;;;;5013651;28;19921;-63
2022/06/21 05:21:40;;;;;;;;;;;;;;;;;;5017562;28;19925;-63
2022/06/21 05:24:05;;;;;;;;;;;;;;;;;;5014071;28;19975;-65
2022/06/21 05:26:33;;;;;;;;;;;;;;;;;;5015886;28;19921;-64
2022/06/21 05:29:01;;;;;;;;;;;;;;;;;;5000570;28;19928;-64
2022/06/21 05:31:27;;;;;;;;;;;;;;;;;;5015842;28;19923;-65
2022/06/21 05:33:52;;;;;;;;;;;;;;;;;;5015272;28;19921;-63
2022/06/21 05:36:22;;;;;;;;;;;;;;;;;;5012758;28;19951;-64
2022/06/21 05:38:50;;;;;;;;;;;;;;;;;;5020186;28;19925;-65
2022/06/21 05:41:29;;;;;;;;;;;;;;;;;;5019751;28;19929;-65
2022/06/21 05:43:57;;;;;;;;;;;;;;;;;;5014397;28;19995;-63
2022/06/21 05:46:24;;;;;;;;;;;;;;;;;;5017945;28;19921;-63
2022/06/21 05:48:54;;;;;;;;;;;;;;;;;;5019636;28;19921;-63
2022/06/21 05:51:22;;;;;;;;;;;;;;;;;;5018755;28;20681;-65
2022/06/21 05:53:47;;;;;;;;;;;;;;;;;;5013601;28;19917;-64
2022/06/21 05:56:12;;;;;;;;;;;;;;;;;;5014917;28;19917;-64
2022/06/21 05:58:38;;;;;;;;;;;;;;;;;;5017708;28;19929;-64
2022/06/21 06:01:03;;;;;;;;;;;;;;;;;;5020619;28;19928;-66
2022/06/21 06:03:29;;;;;;;;;;;;;;;;;;5018233;28;19967;-66
2022/06/21 06:05:54;;;;;;;;;;;;;;;;;;5019849;28;20004;-65
2022/06/21 06:08:24;;;;;;;;;;;;;;;;;;5017319;28;19979;-65
2022/06/21 06:10:54;;;;;;;;;;;;;;;;;;5018774;28;20011;-66
2022/06/21 06:13:23;;;;;;;;;;;;;;;;;;5018282;28;19921;-65
2022/06/21 06:15:50;;;;;;;;;;;;;;;;;;5015370;28;19963;-65
2022/06/21 06:18:16;;;;;;;;;;;;;;;;;;5023458;28;19951;-66
2022/06/21 06:20:41;;;;;;;;;;;;;;;;;;5012843;28;19921;-65
2022/06/21 06:23:09;;;;;;;;;;;;;;;;;;5012437;28;19924;-67
2022/06/21 06:25:34;;;;;;;;;;;;;;;;;;5020881;28;19925;-66
2022/06/21 06:27:59;;;;;;;;;;;;;;;;;;5017820;28;19928;-66
2022/06/21 06:30:24;;;;;;;;;;;;;;;;;;5022908;28;19921;-65
2022/06/21 06:32:50;;;;;;;;;;;;;;;;;;5020124;28;19936;-64
2022/06/21 06:35:15;;;;;;;;;;;;;;;;;;5022486;28;19936;-65
2022/06/21 06:37:42;;;;;;;;;;;;;;;;;;5020293;28;19982;-65
2022/06/21 06:40:07;;;;;;;;;;;;;;;;;;5020263;28;19925;-65
2022/06/21 06:42:35;;;;;;;;;;;;;;;;;;5019550;28;20055;-66
2022/06/21 06:45:00;;;;;;;;;;;;;;;;;;5020449;28;19949;-66
2022/06/21 06:47:29;;;;;;;;;;;;;;;;;;5020890;28;20438;-66
2022/06/21 06:49:54;;;;;;;;;;;;;;;;;;5002404;28;20015;-67
2022/06/21 06:52:20;;;;;;;;;;;;;;;;;;5019659;28;20003;-66
2022/06/21 06:54:45;;;;;;;;;;;;;;;;;;5020852;28;20055;-66
2022/06/21 06:57:11;;;;;;;;;;;;;;;;;;5020357;28;19994;-66
2022/06/21 06:59:37;;;;;;;;;;;;;;;;;;5012774;28;19933;-66
2022/06/21 07:02:02;;;;;;;;;;;;;;;;;;5012897;28;20385;-66
2022/06/21 07:04:28;;;;;;;;;;;;;;;;;;5017714;28;19921;-66
2022/06/21 07:06:56;;;;;;;;;;;;;;;;;;5013047;28;20639;-66
2022/06/21 07:09:22;;;;;;;;;;;;;;;;;;5016381;28;19931;-66
2022/06/21 07:11:49;;;;;;;;;;;;;;;;;;5011566;28;19921;-68
2022/06/21 07:14:14;;;;;;;;;;;;;;;;;;5014440;28;19927;-68
2022/06/21 07:16:43;;;;;;;;;;;;;;;;;;5011557;28;19991;-67
2022/06/21 07:19:10;;;;;;;;;;;;;;;;;;5016393;28;20055;-67
2022/06/21 07:21:36;;;;;;;;;;;;;;;;;;5021440;28;20914;-66
2022/06/21 07:24:01;;;;;;;;;;;;;;;;;;5020204;28;20307;-66
2022/06/21 07:26:27;;;;;;;;;;;;;;;;;;5021172;28;19964;-67
2022/06/21 07:28:52;;;;;;;;;;;;;;;;;;5019533;28;20039;-67
2022/06/21 07:31:18;;;;;;;;;;;;;;;;;;4999118;28;20251;-67
2022/06/21 07:33:45;;;;;;;;;;;;;;;;;;5004557;28;19944;-67
2022/06/21 07:36:11;;;;;;;;;;;;;;;;;;5016097;28;19929;-67
2022/06/21 07:38:38;;;;;;;;;;;;;;;;;;5019489;28;20043;-66
2022/06/21 07:41:04;;;;;;;;;;;;;;;;;;5017551;28;19974;-67
2022/06/21 07:43:29;;;;;;;;;;;;;;;;;;5016474;28;20546;-67
2022/06/21 07:45:57;;;;;;;;;;;;;;;;;;5017970;28;19920;-67
2022/06/21 07:48:22;;;;;;;;;;;;;;;;;;5001268;28;19964;-67
2022/06/21 07:50:48;;;;;;;;;;;;;;;;;;5030922;28;19917;-67
2022/06/21 07:53:13;;;;;;;;;;;;;;;;;;5001789;28;20337;-68
2022/06/21 07:55:41;;;;;;;;;;;;;;;;;;5018413;28;19921;-68
2022/06/21 07:58:06;;;;;;;;;;;;;;;;;;5020100;28;19929;-67
2022/06/21 08:06:41;;;;;;;;;;;;;;;;;;5018640;28;19935;-68
2022/06/21 08:08:48;;;;;;;;;;;;;;;;;;5020317;28;20023;-68
2022/06/21 08:11:16;;;;;;;;;;;;;;;;;;5018399;28;20279;-68
2022/06/21 08:13:42;;;;;;;;;;;;;;;;;;5020732;28;20008;-68
2022/06/21 08:16:07;;;;;;;;;;;;;;;;;;5021111;28;19954;-67
2022/06/21 08:18:35;;;;;;;;;;;;;;;;;;5008380;28;20467;-67
2022/06/21 08:21:00;;;;;;;;;;;;;;;;;;4999488;28;19937;-67
2022/06/21 08:23:25;;;;;;;;;;;;;;;;;;5014578;28;19968;-68
2022/06/21 08:25:58;;;;;;;;;;;;;;;;;;5016569;28;19921;-67
2022/06/21 08:28:27;;;;;;;;;;;;;;;;;;5015702;28;19917;-67
2022/06/21 08:30:54;;;;;;;;;;;;;;;;;;5018457;28;19921;-66
2022/06/21 08:33:22;;;;;;;;;;;;;;;;;;5007404;28;19929;-66
2022/06/21 08:35:47;;;;;;;;;;;;;;;;;;5013882;28;19925;-69
2022/06/21 08:38:13;;;;;;;;;;;;;;;;;;4992044;28;19922;-67
2022/06/21 08:40:43;;;;;;;;;;;;;;;;;;5011399;28;20371;-70
2022/06/21 08:43:08;;;;;;;;;;;;;;;;;;5006132;28;19952;-68
2022/06/21 08:45:43;;;;;;;;;;;;;;;;;;5014186;28;19943;-68
2022/06/21 08:48:09;;;;;;;;;;;;;;;;;;5014234;28;19943;-69
2022/06/21 08:50:36;;;;;;;;;;;;;;;;;;5014381;28;20404;-68
2022/06/21 08:53:03;;;;;;;;;;;;;;;;;;5008194;28;20043;-67
2022/06/21 08:55:31;;;;;;;;;;;;;;;;;;5013426;28;19990;-68
2022/06/21 08:57:56;;;;;;;;;;;;;;;;;;5017960;28;20355;-69
2022/06/21 09:00:24;;;;;;;;;;;;;;;;;;5013218;28;19925;-69
2022/06/21 09:02:49;;;;;;;;;;;;;;;;;;5020106;28;20021;-70
2022/06/21 09:05:18;;;;;;;;;;;;;;;;;;5012600;28;20726;-67
2022/06/21 09:07:43;;;;;;;;;;;;;;;;;;4995040;28;19927;-69
2022/06/21 09:10:11;;;;;;;;;;;;;;;;;;5012821;28;19921;-69
2022/06/21 09:12:39;;;;;;;;;;;;;;;;;;5015579;28;19916;-68
2022/06/21 09:15:04;;;;;;;;;;;;;;;;;;5002112;28;20386;-68
2022/06/21 09:17:32;;;;;;;;;;;;;;;;;;5019988;28;20011;-66
2022/06/21 09:19:58;;;;;;;;;;;;;;;;;;5022843;28;19921;-67
2022/06/21 09:22:23;;;;;;;;;;;;;;;;;;5021048;28;20340;-67
2022/06/21 09:24:48;;;;;;;;;;;;;;;;;;5025929;28;19917;-66
2022/06/21 09:27:14;;;;;;;;;;;;;;;;;;5005663;28;19963;-69
2022/06/21 09:29:40;;;;;;;;;;;;;;;;;;5002978;28;19932;-66
2022/06/21 09:32:05;;;;;;;;;;;;;;;;;;5025163;28;19921;-67
2022/06/21 09:34:32;;;;;;;;;;;;;;;;;;5016403;28;19924;-68
2022/06/21 09:36:58;;;;;;;;;;;;;;;;;;5020592;28;19916;-69
2022/06/21 09:39:26;;;;;;;;;;;;;;;;;;5020937;28;20004;-69
2022/06/21 09:41:52;;;;;;;;;;;;;;;;;;5019356;28;19927;-69
2022/06/21 09:44:17;;;;;;;;;;;;;;;;;;5016778;28;19966;-68
2022/06/21 09:46:43;;;;;;;;;;;;;;;;;;5018382;28;20851;-67
2022/06/21 09:49:11;;;;;;;;;;;;;;;;;;5018780;28;19928;-65
2022/06/21 09:51:36;;;;;;;;;;;;;;;;;;5019798;28;20564;-69
2022/06/21 09:54:03;;;;;;;;;;;;;;;;;;5016006;28;19927;-65
2022/06/21 09:56:31;;;;;;;;;;;;;;;;;;5004465;28;20881;-68
2022/06/21 09:58:57;;;;;;;;;;;;;;;;;;5021774;28;19924;-67
2022/06/21 10:01:22;;;;;;;;;;;;;;;;;;5020091;28;20786;-68
2022/06/21 10:03:47;;;;;;;;;;;;;;;;;;5002617;28;19917;-68
2022/06/21 10:06:14;;;;;;;;;;;;;;;;;;5021105;28;19920;-69
2022/06/21 10:08:42;;;;;;;;;;;;;;;;;;5020642;28;19925;-68
2022/06/21 10:11:10;;;;;;;;;;;;;;;;;;5020690;28;20425;-69
2022/06/21 10:13:38;;;;;;;;;;;;;;;;;;5019205;28;20284;-69
2022/06/21 10:16:04;;;;;;;;;;;;;;;;;;5023986;28;19921;-67
2022/06/21 10:18:32;;;;;;;;;;;;;;;;;;5014899;28;19959;-70
2022/06/21 10:20:57;;;;;;;;;;;;;;;;;;5010594;28;19921;-65
2022/06/21 10:23:23;;;;;;;;;;;;;;;;;;5009013;28;20393;-68
2022/06/21 10:25:49;;;;;;;;;;;;;;;;;;5008000;28;19916;-66
2022/06/21 10:28:17;;;;;;;;;;;;;;;;;;5016612;28;20463;-68
2022/06/21 10:30:45;;;;;;;;;;;;;;;;;;5018861;28;19928;-68
2022/06/21 10:33:10;;;;;;;;;;;;;;;;;;5020335;28;19923;-69
2022/06/21 10:35:36;;;;;;;;;;;;;;;;;;5021339;28;19932;-67
2022/06/21 10:38:02;;;;;;;;;;;;;;;;;;5021151;28;19921;-68
2022/06/21 10:40:27;;;;;;;;;;;;;;;;;;5022888;28;20011;-68
2022/06/21 10:42:55;;;;;;;;;;;;;;;;;;5019832;28;19970;-69
2022/06/21 10:45:23;;;;;;;;;;;;;;;;;;5015860;28;20008;-69
2022/06/21 10:47:48;;;;;;;;;;;;;;;;;;5017489;28;19921;-66
2022/06/21 10:50:14;;;;;;;;;;;;;;;;;;4999693;28;19960;-68
2022/06/21 10:52:39;;;;;;;;;;;;;;;;;;5021443;28;19921;-69
2022/06/21 10:55:07;;;;;;;;;;;;;;;;;;5019832;28;19959;-68
2022/06/21 10:57:32;;;;;;;;;;;;;;;;;;5014073;28;19925;-68
2022/06/21 11:02:42;;;;;;;;;;;;;;;;;;5017291;28;20426;-66
2022/06/21 11:05:08;;;;;;;;;;;;;;;;;;5017463;28;19921;-69
2022/06/21 11:07:34;;;;;;;;;;;;;;;;;;5016536;28;20000;-68
2022/06/21 11:09:59;;;;;;;;;;;;;;;;;;5017336;28;19925;-68
2022/06/21 11:15:11;;;;;;;;;;;;;;;;;;5014986;28;20000;-67
2022/06/21 11:17:37;;;;;;;;;;;;;;;;;;5017524;28;21686;-69
2022/06/21 11:20:04;;;;;;;;;;;;;;;;;;5016139;28;20550;-69
2022/06/21 11:22:30;;;;;;;;;;;;;;;;;;5018490;28;20113;-68
2022/06/21 11:24:58;;;;;;;;;;;;;;;;;;5005042;28;20411;-68
2022/06/21 11:27:23;;;;;;;;;;;;;;;;;;4999869;28;19988;-66
2022/06/21 11:29:49;;;;;;;;;;;;;;;;;;5017135;28;19931;-68
2022/06/21 11:32:14;;;;;;;;;;;;;;;;;;5020261;28;19921;-71
2022/06/21 11:34:42;;;;;;;;;;;;;;;;;;5021165;28;19966;-69
2022/06/21 11:37:08;;;;;;;;;;;;;;;;;;5021146;28;19924;-69
2022/06/21 11:39:33;;;;;;;;;;;;;;;;;;5019053;28;20018;-69
2022/06/21 11:42:06;;;;;;;;;;;;;;;;;;5009051;28;19932;-68
2022/06/21 11:44:31;;;;;;;;;;;;;;;;;;4997955;28;20385;-66
2022/06/21 11:47:02;;;;;;;;;;;;;;;;;;4993515;28;20771;-69
2022/06/21 11:49:27;;;;;;;;;;;;;;;;;;5003455;28;19947;-68
2022/06/21 11:51:57;;;;;;;;;;;;;;;;;;4991577;28;20539;-68
2022/06/21 11:54:22;;;;;;;;;;;;;;;;;;5008021;28;19920;-68
2022/06/21 11:56:48;;;;;;;;;;;;;;;;;;5001080;28;20445;-69
2022/06/21 11:59:14;;;;;;;;;;;;;;;;;;5002491;28;19999;-67
2022/06/21 12:01:46;;;;;;;;;;;;;;;;;;4999520;28;20318;-68
2022/06/21 12:04:11;;;;;;;;;;;;;;;;;;4980583;28;19928;-70
2022/06/21 12:06:37;;;;;;;;;;;;;;;;;;5003165;28;20899;-68
2022/06/21 12:09:05;;;;;;;;;;;;;;;;;;5003892;28;21927;-67
2022/06/21 12:11:30;;;;;;;;;;;;;;;;;;5005450;28;19925;-67
2022/06/21 12:13:58;;;;;;;;;;;;;;;;;;5006690;28;19924;-67
2022/06/21 12:16:23;;;;;;;;;;;;;;;;;;5000628;28;19921;-68
2022/06/21 12:18:49;;;;;;;;;;;;;;;;;;5005013;28;19921;-67
2022/06/21 12:21:14;;;;;;;;;;;;;;;;;;4997969;28;20016;-66
2022/06/21 12:23:44;;;;;;;;;;;;;;;;;;4999131;28;19921;-65
2022/06/21 12:26:10;;;;;;;;;;;;;;;;;;5022021;28;19917;-67
2022/06/21 12:28:38;;;;;;;;;;;;;;;;;;5002482;28;20295;-66
2022/06/21 12:31:03;;;;;;;;;;;;;;;;;;5003939;28;19921;-66
2022/06/21 12:33:33;;;;;;;;;;;;;;;;;;5000276;28;19921;-67
2022/06/21 12:36:01;;;;;;;;;;;;;;;;;;5000989;28;19921;-67
2022/06/21 12:38:26;;;;;;;;;;;;;;;;;;5016024;28;20916;-67
2022/06/21 12:40:51;;;;;;;;;;;;;;;;;;4997295;28;19923;-66
2022/06/21 12:43:17;;;;;;;;;;;;;;;;;;5016470;28;19982;-68
2022/06/21 12:45:42;;;;;;;;;;;;;;;;;;5012674;28;20346;-72
2022/06/21 12:48:08;;;;;;;;;;;;;;;;;;5017470;28;19917;-68
2022/06/21 12:50:34;;;;;;;;;;;;;;;;;;5016152;28;19946;-68
2022/06/21 12:52:59;;;;;;;;;;;;;;;;;;5010320;28;19916;-67
2022/06/21 12:55:27;;;;;;;;;;;;;;;;;;5016632;28;19921;-66
2022/06/21 12:57:53;;;;;;;;;;;;;;;;;;5031008;28;19943;-69
2022/06/21 13:00:18;;;;;;;;;;;;;;;;;;5020818;28;19929;-67
2022/06/21 13:02:46;;;;;;;;;;;;;;;;;;5018736;28;19917;-71
2022/06/21 13:05:11;;;;;;;;;;;;;;;;;;5020706;28;20327;-66
2022/06/21 13:07:39;;;;;;;;;;;;;;;;;;5021102;28;19927;-71
2022/06/21 13:10:05;;;;;;;;;;;;;;;;;;5020260;28;19921;-69
2022/06/21 13:12:30;;;;;;;;;;;;;;;;;;5023172;28;19933;-71
2022/06/21 13:14:57;;;;;;;;;;;;;;;;;;5017128;28;19928;-70
2022/06/21 13:17:22;;;;;;;;;;;;;;;;;;5023870;28;19925;-68
2022/06/21 13:19:47;;;;;;;;;;;;;;;;;;5023017;28;19917;-71
2022/06/21 13:22:12;;;;;;;;;;;;;;;;;;5019657;28;19932;-68
2022/06/21 13:24:38;;;;;;;;;;;;;;;;;;5020208;28;19932;-69
2022/06/21 13:27:03;;;;;;;;;;;;;;;;;;5000873;28;20042;-70
2022/06/21 13:29:29;;;;;;;;;;;;;;;;;;5021493;28;19963;-69
2022/06/21 13:31:55;;;;;;;;;;;;;;;;;;5022153;28;20618;-69
2022/06/21 13:34:21;;;;;;;;;;;;;;;;;;5022534;28;19967;-72
2022/06/21 13:36:48;;;;;;;;;;;;;;;;;;5018451;28;19916;-74
2022/06/21 13:39:14;;;;;;;;;;;;;;;;;;5022855;28;20018;-72
2022/06/21 13:44:23;;;;;;;;;;;;;;;;;;5019293;28;19933;-71
2022/06/21 13:46:49;;;;;;;;;;;;;;;;;;5021157;28;20016;-72
2022/06/21 13:49:14;;;;;;;;;;;;;;;;;;5020149;28;19979;-70
2022/06/21 13:51:39;;;;;;;;;;;;;;;;;;5023497;28;19920;-70
2022/06/21 13:54:05;;;;;;;;;;;;;;;;;;5033154;28;19924;-72
2022/06/21 13:56:31;;;;;;;;;;;;;;;;;;5018637;28;19964;-71
2022/06/21 13:58:57;;;;;;;;;;;;;;;;;;4996124;28;19940;-72
2022/06/21 14:01:23;;;;;;;;;;;;;;;;;;5016790;28;19921;-70
2022/06/21 14:03:48;;;;;;;;;;;;;;;;;;5015094;28;19928;-71
2022/06/21 14:06:14;;;;;;;;;;;;;;;;;;5021419;28;20308;-69
2022/06/21 14:08:42;;;;;;;;;;;;;;;;;;5013957;28;19928;-68
2022/06/21 14:11:07;;;;;;;;;;;;;;;;;;5012071;28;19924;-69
2022/06/21 14:13:35;;;;;;;;;;;;;;;;;;5015497;28;19936;-70
2022/06/21 14:16:00;;;;;;;;;;;;;;;;;;5011984;28;19928;-69
2022/06/21 14:18:27;;;;;;;;;;;;;;;;;;5001432;28;19921;-71
2022/06/21 14:20:55;;;;;;;;;;;;;;;;;;5020717;28;19924;-69
2022/06/21 14:23:23;;;;;;;;;;;;;;;;;;5014969;28;19940;-69
2022/06/21 14:25:49;;;;;;;;;;;;;;;;;;5014220;28;20282;-69
2022/06/21 14:28:14;;;;;;;;;;;;;;;;;;5012111;28;19924;-69
2022/06/21 14:30:39;;;;;;;;;;;;;;;;;;5015275;28;20398;-70
2022/06/21 14:33:06;;;;;;;;;;;;;;;;;;5022639;28;19928;-70
2022/06/21 14:35:31;;;;;;;;;;;;;;;;;;5020612;28;19932;-69
2022/06/21 14:37:56;;;;;;;;;;;;;;;;;;5016919;28;19921;-69
2022/06/21 14:40:24;;;;;;;;;;;;;;;;;;5014429;28;19947;-69
2022/06/21 14:42:49;;;;;;;;;;;;;;;;;;5019748;28;20000;-68
2022/06/21 14:45:14;;;;;;;;;;;;;;;;;;4997531;28;19999;-70
2022/06/21 14:47:42;;;;;;;;;;;;;;;;;;5016168;28;19921;-69
2022/06/21 14:50:07;;;;;;;;;;;;;;;;;;5011523;28;20327;-68
2022/06/21 14:52:32;;;;;;;;;;;;;;;;;;5015584;28;19921;-71
2022/06/21 14:54:58;;;;;;;;;;;;;;;;;;4994397;28;20024;-69
2022/06/21 14:57:23;;;;;;;;;;;;;;;;;;5014500;28;19917;-67
2022/06/21 14:59:51;;;;;;;;;;;;;;;;;;5012036;28;20007;-69
2022/06/21 15:02:18;;;;;;;;;;;;;;;;;;5009394;28;20022;-67
2022/06/21 15:04:44;;;;;;;;;;;;;;;;;;5006277;28;19928;-67
2022/06/21 15:07:16;;;;;;;;;;;;;;;;;;5018351;28;19925;-68
2022/06/21 15:09:46;;;;;;;;;;;;;;;;;;5010632;28;19966;-69
2022/06/21 15:12:12;;;;;;;;;;;;;;;;;;5013650;28;21017;-68
2022/06/21 15:14:38;;;;;;;;;;;;;;;;;;5010216;28;20723;-68
2022/06/21 15:17:03;;;;;;;;;;;;;;;;;;4997922;28;19972;-67
2022/06/21 15:22:12;;;;;;;;;;;;;;;;;;5016958;28;19924;-68
2022/06/21 15:24:38;;;;;;;;;;;;;;;;;;5011576;28;20043;-68
2022/06/21 15:27:13;;;;;;;;;;;;;;;;;;5006104;28;19924;-68
2022/06/21 15:29:39;;;;;;;;;;;;;;;;;;5014659;28;19925;-68
2022/06/21 15:32:04;;;;;;;;;;;;;;;;;;5010334;28;19920;-68
2022/06/21 15:34:29;;;;;;;;;;;;;;;;;;5010462;28;20786;-68
2022/06/21 15:36:54;;;;;;;;;;;;;;;;;;5013955;28;19921;-68
2022/06/21 15:39:20;;;;;;;;;;;;;;;;;;5019869;28;19921;-68
2022/06/21 15:41:45;;;;;;;;;;;;;;;;;;5018356;28;19925;-68
2022/06/21 15:44:16;;;;;;;;;;;;;;;;;;5014068;28;19927;-68
2022/06/21 15:50:12;;;;;;;;;;;;;;;;;;5012599;28;20018;-68
2022/06/21 15:52:16;;;;;;;;;;;;;;;;;;5012684;28;20044;-67
2022/06/21 15:54:41;;;;;;;;;;;;;;;;;;5007650;28;20557;-68
2022/06/21 15:57:10;;;;;;;;;;;;;;;;;;5017601;28;19955;-66
2022/06/21 15:59:37;;;;;;;;;;;;;;;;;;5010784;28;20518;-69
2022/06/21 16:02:03;;;;;;;;;;;;;;;;;;5008137;28;20379;-67
2022/06/21 16:04:33;;;;;;;;;;;;;;;;;;5010026;28;19921;-68
2022/06/21 16:10:15;;;;;;;;;;;;;;;;;;5015543;28;19932;-68
2022/06/21 16:12:48;;;;;;;;;;;;;;;;;;5010070;28;19936;-67
2022/06/21 16:15:13;;;;;;;;;;;;;;;;;;5011768;28;21060;-67
2022/06/21 16:17:41;;;;;;;;;;;;;;;;;;5015696;28;20962;-67
2022/06/21 16:20:06;;;;;;;;;;;;;;;;;;5009765;28;19917;-69
2022/06/21 16:22:33;;;;;;;;;;;;;;;;;;5015456;28;20573;-69
2022/06/21 16:25:00;;;;;;;;;;;;;;;;;;5013603;28;20005;-69
2022/06/21 16:27:29;;;;;;;;;;;;;;;;;;5027827;28;19925;-68
2022/06/21 16:29:54;;;;;;;;;;;;;;;;;;5012192;28;19925;-69
2022/06/21 16:35:07;;;;;;;;;;;;;;;;;;5013143;28;19924;-68
2022/06/21 16:37:35;;;;;;;;;;;;;;;;;;5018045;28;19932;-69
2022/06/21 16:40:03;;;;;;;;;;;;;;;;;;5019800;28;19925;-69
2022/06/21 16:45:17;;;;;;;;;;;;;;;;;;5015141;28;20383;-68
2022/06/21 16:47:43;;;;;;;;;;;;;;;;;;4992909;28;19999;-68
2022/06/21 16:50:11;;;;;;;;;;;;;;;;;;5015226;28;22082;-69
2022/06/21 16:52:38;;;;;;;;;;;;;;;;;;4998139;28;19924;-68
2022/06/21 16:55:03;;;;;;;;;;;;;;;;;;5008148;28;19929;-67
2022/06/21 16:57:31;;;;;;;;;;;;;;;;;;5016667;28;21889;-68
2022/06/21 16:59:57;;;;;;;;;;;;;;;;;;5022027;28;20016;-68
2022/06/21 17:02:22;;;;;;;;;;;;;;;;;;5013225;28;20456;-68
2022/06/21 17:04:48;;;;;;;;;;;;;;;;;;5011873;28;19975;-71
2022/06/21 17:07:13;;;;;;;;;;;;;;;;;;5015240;28;20003;-68
2022/06/21 17:09:38;;;;;;;;;;;;;;;;;;5009420;28;19936;-70
2022/06/21 17:12:07;;;;;;;;;;;;;;;;;;5012105;28;19925;-67